OINE

Details ICAO OINE
Name KALALEH
Region Iran
Timezone Asia/Tehran (UTC+3.5)
Plans Departing 0
Arriving 0
Stats Elevation 425 ft / 130 m (AMSL)
Location 37.383272° 55.452007°
Runways 1
Magnetic Variation 4.975° E
Sunrise 2017-12-13 03:25:12 UTC / 2017-12-13 06:55:12 Local
Sunset 2017-12-13 13:02:17 UTC / 2017-12-13 16:32:17 Local
Advertisement - Login to hide

Runways

ID Width Length Bearing (true) Bearing (mag) Surface Threshold Offset Overrun Length
10 92 ft / 28 m 7,264 ft / 2,214 m 104.95° 99.97° Asphalt 0 ft / 0 m 0 ft / 0 m
28 92 ft / 28 m 7,264 ft / 2,214 m 284.97° 279.99° Asphalt 0 ft / 0 m 0 ft / 0 m

Map

Weather


0- 5 10 15 20 25 30 35+ Temperature / ° C

Clouds and Precipitation
Forecast for 2017-12-13 18:00 UTC. Updated 2 hours ago

Ground ~20,000 ft ~40,000 ft Winds

METAR

OINE 131500Z 00000KT 9999 SCT030 BKN090 08/06 Q1024

TAF

Not found

Frequencies

Tower 121.90 MHz AFIS
Tower 121.70 MHz AFIS
Warning: Do not use this data for real-world aviation or navigation. No guarantee of current accuracy is given.